Time;durP1;ratioP1;P1;durP2;ratioP2;P2;SDS_P1;SDS_P2;PMS_P1;PMS_P2;Temp;Humidity;BMP_temperature;BMP_pressure;BME280_temperature;BME280_humidity;BME280_pressure;Samples;Min_cycle;Max_cycle;Signal;HPM_P1;HPM_P2
2021/08/24 00:01:27;;;;;;;0.10;0.10;;;;;;;22.40;42.10;100273.13;6212571;23;20024;-62
2021/08/24 00:04:13;;;;;;;0.10;0.10;;;;;;;22.39;42.13;100284.75;6211694;23;20107;-62
2021/08/24 00:06:59;;;;;;;0.10;0.10;;;;;;;22.38;42.26;100283.09;6212503;23;20020;-62
2021/08/24 00:09:45;;;;;;;0.10;0.10;;;;;;;22.37;42.08;100283.25;6211291;23;20021;-61
2021/08/24 00:12:31;;;;;;;0.20;0.20;;;;;;;22.21;42.17;100260.78;6212356;23;20103;-62
2021/08/24 00:15:17;;;;;;;0.10;0.10;;;;;;;22.34;42.35;100281.72;6211635;23;20456;-61
2021/08/24 00:18:03;;;;;;;0.10;0.10;;;;;;;22.35;42.12;100285.22;6211925;23;20051;-62
2021/08/24 00:20:50;;;;;;;0.10;0.10;;;;;;;22.33;42.45;100282.69;6212868;23;20024;-62
2021/08/24 00:23:36;;;;;;;0.10;0.10;;;;;;;22.31;42.23;100290.00;6212049;23;20020;-62
2021/08/24 00:26:21;;;;;;;0.10;0.10;;;;;;;22.30;42.31;100294.47;6212180;23;20024;-61
2021/08/24 00:29:07;;;;;;;0.22;0.22;;;;;;;22.28;42.40;100298.28;6211828;23;20324;-62
2021/08/24 00:31:53;;;;;;;0.10;0.10;;;;;;;22.26;42.48;100294.91;6211234;23;20035;-60
2021/08/24 00:34:39;;;;;;;0.10;0.10;;;;;;;22.27;42.38;100291.28;6212147;23;20020;-60
2021/08/24 00:37:25;;;;;;;0.32;0.32;;;;;;;22.24;42.27;100296.91;6210341;23;20044;-60
2021/08/24 00:40:11;;;;;;;0.13;0.13;;;;;;;22.23;42.41;100292.53;6211749;23;20150;-60
2021/08/24 00:42:39;;;;;;;0.20;0.20;;;;;;;22.24;42.46;100292.41;6211668;23;20503;-60
2021/08/24 00:45:06;;;;;;;0.10;0.10;;;;;;;22.22;42.42;100294.38;6211380;23;20519;-60
2021/08/24 00:47:32;;;;;;;0.10;0.10;;;;;;;22.21;42.53;100286.56;6209883;23;20457;-60
2021/08/24 00:50:03;;;;;;;0.10;0.10;;;;;;;22.21;42.59;100290.06;6209836;23;20024;-60
2021/08/24 00:52:29;;;;;;;0.13;0.13;;;;;;;22.21;42.58;100287.41;6210183;23;20027;-60
2021/08/24 00:54:56;;;;;;;0.17;0.17;;;;;;;22.19;42.53;100285.84;6209801;23;20021;-60
2021/08/24 00:57:24;;;;;;;0.10;0.10;;;;;;;22.15;42.63;100272.00;6211544;23;20021;-60
2021/08/24 00:59:50;;;;;;;0.17;0.17;;;;;;;22.16;42.59;100276.34;6211832;23;20099;-60
2021/08/24 01:02:18;;;;;;;0.10;0.10;;;;;;;22.19;42.51;100283.19;6211097;23;20020;-60
2021/08/24 01:04:44;;;;;;;0.10;0.10;;;;;;;22.16;42.53;100284.31;6211955;23;20075;-60
2021/08/24 01:07:21;;;;;;;0.22;0.22;;;;;;;22.19;42.71;100288.50;6211330;23;20032;-60
2021/08/24 01:09:54;;;;;;;0.10;0.10;;;;;;;22.17;42.65;100280.69;6210416;23;20067;-60
2021/08/24 01:12:48;;;;;;;0.10;0.10;;;;;;;22.12;42.58;100279.47;6209823;23;20027;-59
2021/08/24 01:15:29;;;;;;;0.15;0.15;;;;;;;22.16;42.56;100283.47;6185889;23;20103;-59
2021/08/24 01:17:59;;;;;;;0.17;0.17;;;;;;;22.15;42.46;100284.47;6211586;23;20016;-59
2021/08/24 01:21:15;;;;;;;0.10;0.10;;;;;;;22.14;42.57;100285.47;6210435;23;20020;-59
2021/08/24 01:23:46;;;;;;;0.10;0.10;;;;;;;22.09;42.60;100279.72;6211752;23;20349;-61
2021/08/24 01:26:27;;;;;;;0.10;0.10;;;;;;;22.12;42.75;100290.09;6211359;23;20093;-61
2021/08/24 01:29:29;;;;;;;0.17;0.17;;;;;;;22.11;42.67;100283.94;6210286;23;20020;-60
2021/08/24 01:32:07;;;;;;;0.10;0.10;;;;;;;22.10;42.73;100286.72;6211353;23;20114;-61
2021/08/24 01:35:18;;;;;;;0.10;0.10;;;;;;;22.04;42.85;100284.66;6211163;23;20027;-61
2021/08/24 01:38:03;;;;;;;0.10;0.10;;;;;;;22.07;42.59;100290.53;6132697;23;20021;-61
2021/08/24 01:40:47;;;;;;;0.10;0.10;;;;;;;22.03;42.81;100277.66;6211566;23;20071;-60
2021/08/24 01:43:15;;;;;;;1.20;0.47;;;;;;;22.04;42.81;100277.53;6210783;23;20019;-60
2021/08/24 01:45:48;;;;;;;0.10;0.10;;;;;;;22.04;42.89;100282.84;6210014;23;20024;-61
2021/08/24 01:48:22;;;;;;;0.10;0.10;;;;;;;22.00;42.85;100270.81;6209777;23;20025;-60
2021/08/24 01:51:15;;;;;;;0.10;0.10;;;;;;;22.00;42.75;100268.16;6161297;23;20468;-60
2021/08/24 01:53:47;;;;;;;0.10;0.10;;;;;;;21.98;42.84;100275.47;6193946;23;20024;-60
2021/08/24 01:56:24;;;;;;;0.10;0.10;;;;;;;22.01;42.93;100277.81;6209372;23;20016;-61
2021/08/24 01:58:55;;;;;;;0.10;0.10;;;;;;;21.97;42.84;100268.47;6185147;23;20059;-61
2021/08/24 02:01:23;;;;;;;0.10;0.10;;;;;;;21.98;42.91;100272.81;6209481;23;20016;-61
2021/08/24 02:03:51;;;;;;;0.43;0.43;;;;;;;21.99;42.83;100270.97;6211392;23;20048;-59
2021/08/24 02:06:24;;;;;;;0.10;0.10;;;;;;;21.99;42.99;100270.97;6185063;23;20044;-59
2021/08/24 02:08:51;;;;;;;0.10;0.10;;;;;;;21.98;42.93;100269.28;6210065;23;20199;-60
2021/08/24 02:11:17;;;;;;;0.10;0.10;;;;;;;21.96;42.83;100261.44;6211001;23;20024;-60
2021/08/24 02:13:45;;;;;;;0.20;0.20;;;;;;;21.98;43.03;100262.16;6209864;23;20090;-60
2021/08/24 02:16:14;;;;;;;0.35;0.35;;;;;;;22.02;42.89;100270.69;6209680;23;20051;-59
2021/08/24 02:18:41;;;;;;;0.10;0.10;;;;;;;22.05;42.86;100262.41;6209872;23;20013;-59
2021/08/24 02:21:14;;;;;;;0.10;0.10;;;;;;;22.07;42.74;100263.94;6209624;23;20479;-59
2021/08/24 02:23:40;;;;;;;0.50;0.50;;;;;;;22.08;42.72;100268.28;6185968;23;20021;-60
2021/08/24 02:26:07;;;;;;;0.35;0.35;;;;;;;22.12;42.80;100266.97;6209649;23;20086;-60
2021/08/24 02:28:34;;;;;;;0.15;0.15;;;;;;;22.16;42.59;100271.03;6185098;23;20024;-59
2021/08/24 02:31:12;;;;;;;0.10;0.10;;;;;;;22.17;42.50;100261.22;6211364;23;20090;-59
2021/08/24 02:33:41;;;;;;;0.10;0.10;;;;;;;22.22;42.33;100265.09;6186175;23;20029;-59
2021/08/24 02:36:07;;;;;;;0.10;0.10;;;;;;;22.27;42.29;100275.31;6185018;23;20364;-63
2021/08/24 02:38:35;;;;;;;0.10;0.10;;;;;;;22.52;41.89;100279.06;6184443;23;20412;-63
2021/08/24 02:41:20;;;;;;;0.10;0.10;;;;;;;22.82;41.12;100276.94;6185405;23;20098;-63
2021/08/24 02:44:09;;;;;;;0.10;0.10;;;;;;;23.13;40.70;100279.22;6211149;23;20028;-62
2021/08/24 02:46:38;;;;;;;0.30;0.30;;;;;;;23.47;39.77;100277.50;6209503;23;20165;-61
2021/08/24 02:49:10;;;;;;;0.10;0.10;;;;;;;23.78;38.92;100289.38;6209381;23;20044;-63
2021/08/24 02:51:36;;;;;;;0.10;0.10;;;;;;;24.05;38.35;100287.50;6185538;23;20024;-62
2021/08/24 02:54:16;;;;;;;0.10;0.10;;;;;;;24.19;38.16;100281.59;6209708;23;20059;-62
2021/08/24 02:56:43;;;;;;;0.17;0.17;;;;;;;24.33;37.76;100297.00;6211172;23;20108;-61
2021/08/24 02:59:09;;;;;;;0.10;0.10;;;;;;;24.35;37.78;100303.00;6212666;23;20154;-64
2021/08/24 03:01:38;;;;;;;0.43;0.43;;;;;;;24.41;37.53;100291.66;6212889;23;20346;-61
2021/08/24 03:04:04;;;;;;;0.13;0.13;;;;;;;24.42;37.44;100288.00;6213135;23;20024;-61
2021/08/24 03:06:31;;;;;;;0.10;0.10;;;;;;;24.18;37.84;100282.59;6211350;23;20028;-61
2021/08/24 03:08:57;;;;;;;0.10;0.10;;;;;;;24.04;38.09;100285.84;6186132;23;20028;-59
2021/08/24 03:11:24;;;;;;;0.10;0.10;;;;;;;23.80;38.36;100268.72;6210811;23;20106;-61
2021/08/24 03:13:58;;;;;;;0.32;0.32;;;;;;;23.93;38.55;100291.44;6186440;23;20016;-60
2021/08/24 03:16:36;;;;;;;0.10;0.10;;;;;;;24.14;38.16;100299.94;6210935;23;20055;-60
2021/08/24 03:19:05;;;;;;;0.10;0.10;;;;;;;24.29;37.74;100300.97;6186524;23;20048;-60
2021/08/24 03:21:32;;;;;;;0.20;0.20;;;;;;;24.20;37.78;100304.63;6186472;23;20012;-63
2021/08/24 03:23:58;;;;;;;0.10;0.10;;;;;;;24.02;38.40;100309.19;6186341;23;20020;-63
2021/08/24 03:26:26;;;;;;;0.10;0.10;;;;;;;23.82;38.61;100306.72;6212361;23;20021;-63
2021/08/24 03:28:52;;;;;;;0.10;0.10;;;;;;;23.67;38.94;100302.13;6211159;23;20119;-63
2021/08/24 03:31:18;;;;;;;0.10;0.10;;;;;;;23.60;39.09;100293.06;6212372;23;20464;-64
2021/08/24 03:33:45;;;;;;;0.28;0.28;;;;;;;23.66;39.03;100313.78;6185726;23;20380;-64
2021/08/24 03:36:11;;;;;;;0.15;0.15;;;;;;;23.74;38.89;100305.84;6210485;23;20465;-61
2021/08/24 03:38:40;;;;;;;2.28;1.55;;;;;;;23.71;39.03;100307.00;6162677;23;20027;-64
2021/08/24 03:41:26;;;;;;;0.93;0.93;;;;;;;23.49;39.26;100291.53;6213699;23;20021;-63
2021/08/24 03:44:13;;;;;;;0.10;0.10;;;;;;;23.46;39.34;100313.13;6212080;23;20035;-63
2021/08/24 03:47:00;;;;;;;0.10;0.10;;;;;;;23.38;39.74;100318.38;6213387;23;20021;-63
2021/08/24 03:49:53;;;;;;;0.10;0.10;;;;;;;23.30;39.70;100318.31;6172313;23;20575;-60
2021/08/24 03:52:40;;;;;;;0.10;0.10;;;;;;;23.26;39.93;100319.63;6211700;23;20027;-63
2021/08/24 03:55:27;;;;;;;0.10;0.10;;;;;;;23.23;40.09;100318.09;6171009;23;20572;-64
2021/08/24 03:58:14;;;;;;;0.20;0.20;;;;;;;23.23;40.00;100322.59;6213017;23;20025;-63
2021/08/24 04:01:16;;;;;;;0.17;0.17;;;;;;;23.19;40.02;100313.22;6211771;23;20078;-62
2021/08/24 04:04:03;;;;;;;0.10;0.10;;;;;;;23.22;39.99;100327.09;6213286;23;20451;-62
2021/08/24 04:06:52;;;;;;;0.13;0.13;;;;;;;23.20;40.21;100325.56;6211731;23;20036;-63
2021/08/24 04:09:38;;;;;;;0.10;0.10;;;;;;;23.19;40.12;100326.56;6211707;23;20147;-62
2021/08/24 04:12:25;;;;;;;0.10;0.10;;;;;;;23.15;40.13;100319.84;6212044;23;20025;-62
2021/08/24 04:15:11;;;;;;;0.10;0.10;;;;;;;23.16;40.23;100326.88;6211229;23;20020;-63
2021/08/24 04:17:56;;;;;;;0.10;0.10;;;;;;;23.14;40.29;100321.66;6212931;23;20028;-62
2021/08/24 04:20:44;;;;;;;0.10;0.10;;;;;;;23.12;40.36;100326.31;6213384;23;20028;-62
2021/08/24 04:23:42;;;;;;;0.10;0.10;;;;;;;23.12;40.49;100336.16;6212839;23;20017;-60
2021/08/24 04:26:27;;;;;;;0.10;0.10;;;;;;;23.12;40.52;100330.81;6211798;23;20017;-60
2021/08/24 04:29:13;;;;;;;0.10;0.10;;;;;;;23.12;40.46;100330.81;6211732;23;20103;-62
2021/08/24 04:32:00;;;;;;;0.20;0.20;;;;;;;23.06;40.24;100305.63;6211937;23;20104;-62
2021/08/24 04:34:45;;;;;;;0.15;0.15;;;;;;;23.15;40.47;100320.69;6212084;23;20047;-62
2021/08/24 04:37:31;;;;;;;0.25;0.25;;;;;;;23.19;40.17;100310.56;6210351;23;20051;-62
2021/08/24 04:40:17;;;;;;;0.10;0.10;;;;;;;23.36;39.90;100317.72;6212055;23;20027;-62
2021/08/24 04:43:03;;;;;;;0.10;0.10;;;;;;;23.46;39.65;100313.13;6212327;23;20055;-61
2021/08/24 04:45:49;;;;;;;0.15;0.13;;;;;;;23.72;39.28;100323.84;6212119;23;20027;-62
2021/08/24 04:48:35;;;;;;;0.30;0.30;;;;;;;24.02;38.57;100317.19;6210135;23;20051;-62
2021/08/24 04:51:21;;;;;;;0.20;0.20;;;;;;;24.79;37.17;100308.97;6211335;23;20028;-61
2021/08/24 04:54:06;;;;;;;0.40;0.40;;;;;;;26.09;34.70;100321.31;6211924;23;20106;-61
2021/08/24 04:56:53;;;;;;;0.50;0.50;;;;;;;27.31;32.71;100319.69;6212223;23;20012;-61
2021/08/24 04:59:38;;;;;;;0.38;0.38;;;;;;;27.70;31.54;100314.16;6211324;23;20384;-61
2021/08/24 05:02:24;;;;;;;0.43;0.43;;;;;;;28.39;30.70;100306.66;6210071;23;20025;-62
2021/08/24 05:05:10;;;;;;;0.38;0.38;;;;;;;28.83;29.89;100309.25;6211818;23;20403;-62
2021/08/24 05:07:56;;;;;;;0.10;0.10;;;;;;;29.23;29.18;100319.38;6211727;23;20721;-62
2021/08/24 05:10:42;;;;;;;0.20;0.20;;;;;;;29.31;28.84;100303.16;6211701;23;20086;-62
2021/08/24 05:13:28;;;;;;;0.20;0.20;;;;;;;29.38;28.98;100305.91;6211287;23;20024;-63
2021/08/24 05:16:14;;;;;;;0.30;0.30;;;;;;;29.62;28.57;100294.69;6211098;23;20389;-62
2021/08/24 05:18:59;;;;;;;0.40;0.40;;;;;;;30.21;27.82;100305.84;6211336;23;20107;-62
2021/08/24 05:21:45;;;;;;;0.50;0.50;;;;;;;30.53;27.31;100309.75;6211799;23;20025;-62
2021/08/24 05:24:34;;;;;;;0.63;0.63;;;;;;;30.75;26.99;100311.28;6211104;23;20020;-63
2021/08/24 05:27:20;;;;;;;0.28;0.28;;;;;;;30.87;26.66;100298.84;6211023;23;20357;-63
2021/08/24 05:30:07;;;;;;;0.57;0.57;;;;;;;31.03;26.48;100299.53;6210501;23;20236;-63
2021/08/24 05:32:53;;;;;;;0.40;0.40;;;;;;;31.19;26.30;100307.22;6211177;23;20368;-62
2021/08/24 05:35:39;;;;;;;0.10;0.10;;;;;;;31.27;26.33;100296.22;6211575;23;20020;-62
2021/08/24 05:38:26;;;;;;;1.55;0.73;;;;;;;31.34;26.02;100291.66;6211159;23;20150;-63
2021/08/24 05:41:12;;;;;;;0.20;0.20;;;;;;;31.45;26.00;100296.44;6211327;23;20376;-65
2021/08/24 05:43:58;;;;;;;0.75;0.75;;;;;;;31.54;25.78;100300.63;6211523;23;20103;-64
2021/08/24 05:46:44;;;;;;;0.40;0.40;;;;;;;31.63;25.73;100295.81;6211449;23;20158;-64
2021/08/24 05:49:33;;;;;;;0.30;0.30;;;;;;;31.71;25.91;100293.72;6210863;23;20453;-65
2021/08/24 05:52:19;;;;;;;0.20;0.20;;;;;;;31.80;25.50;100292.50;6209882;23;20103;-64
2021/08/24 05:55:05;;;;;;;0.10;0.10;;;;;;;31.79;25.53;100287.28;6211952;23;20103;-65
2021/08/24 05:57:52;;;;;;;0.10;0.10;;;;;;;31.91;25.70;100291.81;6210101;23;20016;-64
2021/08/24 06:00:38;;;;;;;0.17;0.17;;;;;;;31.98;25.50;100298.03;6211247;23;20107;-64
2021/08/24 06:03:24;;;;;;;0.13;0.13;;;;;;;32.14;25.33;100294.06;6210752;23;20555;-65
2021/08/24 06:06:21;;;;;;;0.10;0.10;;;;;;;32.46;24.80;100289.59;6211667;23;20056;-63
2021/08/24 06:09:08;;;;;;;0.47;0.47;;;;;;;33.51;23.38;100294.31;6211381;23;20070;-64
2021/08/24 06:11:55;;;;;;;0.38;0.38;;;;;;;37.01;19.16;100281.22;6211429;23;20083;-65
2021/08/24 06:14:40;;;;;;;0.20;0.20;;;;;;;40.68;15.32;100281.63;6211237;23;20044;-65
2021/08/24 06:17:27;;;;;;;0.30;0.30;;;;;;;42.64;13.32;100272.22;6211251;23;20021;-65
2021/08/24 06:20:12;;;;;;;0.30;0.30;;;;;;;43.90;12.49;100287.66;6211581;23;20050;-66
2021/08/24 06:22:58;;;;;;;0.30;0.30;;;;;;;44.40;11.72;100279.88;6211517;23;20028;-65
2021/08/24 06:25:44;;;;;;;0.40;0.40;;;;;;;44.65;11.77;100274.00;6211525;23;20057;-66
2021/08/24 06:28:30;;;;;;;0.30;0.30;;;;;;;44.64;11.80;100288.09;6210651;23;20415;-65
2021/08/24 06:31:17;;;;;;;0.30;0.30;;;;;;;44.73;11.51;100275.28;6213486;23;20024;-66
2021/08/24 06:34:04;;;;;;;0.65;0.65;;;;;;;44.64;11.17;100274.31;6212877;23;20107;-65
2021/08/24 06:36:50;;;;;;;0.30;0.30;;;;;;;44.38;11.37;100277.41;6191382;23;20104;-63
2021/08/24 06:39:36;;;;;;;0.28;0.28;;;;;;;41.57;13.77;100270.97;6212941;23;20266;-64
2021/08/24 06:42:22;;;;;;;0.30;0.30;;;;;;;37.99;17.24;100284.09;6212957;23;20031;-64
2021/08/24 06:45:30;;;;;;;0.50;0.50;;;;;;;35.79;19.61;100286.06;6212759;23;20024;-64
2021/08/24 06:48:17;;;;;;;0.10;0.10;;;;;;;34.45;20.99;100280.41;6211957;23;20421;-64
2021/08/24 06:50:43;;;;;;;0.10;0.10;;;;;;;33.89;21.81;100276.03;6211263;23;20547;-65
2021/08/24 06:53:09;;;;;;;0.10;0.10;;;;;;;33.53;22.22;100281.38;6212703;23;20352;-66
2021/08/24 06:55:38;;;;;;;0.30;0.30;;;;;;;33.38;22.41;100289.84;6210959;23;20020;-63
2021/08/24 06:58:05;;;;;;;0.20;0.20;;;;;;;33.24;22.66;100282.06;6212741;23;20020;-64
2021/08/24 07:00:31;;;;;;;0.20;0.20;;;;;;;33.08;22.66;100279.88;6210891;23;20017;-65
2021/08/24 07:02:58;;;;;;;0.20;0.20;;;;;;;32.89;23.33;100282.47;6212637;23;20464;-65
2021/08/24 07:05:26;;;;;;;0.10;0.10;;;;;;;32.69;23.20;100284.47;6212323;23;20012;-65
2021/08/24 07:07:52;;;;;;;0.10;0.10;;;;;;;32.71;23.40;100287.81;6212692;23;20082;-64
2021/08/24 07:10:18;;;;;;;0.50;0.50;;;;;;;32.69;23.13;100283.69;6212821;23;20024;-64
2021/08/24 07:12:45;;;;;;;0.00;0.00;;;;;;;32.33;23.64;100281.53;6212759;23;20032;-64
2021/08/24 07:15:13;;;;;;;0.38;0.38;;;;;;;31.59;24.44;100281.91;6212471;23;20461;-64
2021/08/24 07:17:39;;;;;;;0.00;0.00;;;;;;;31.06;25.13;100285.63;6212279;23;20475;-65
2021/08/24 07:20:06;;;;;;;0.30;0.30;;;;;;;31.02;25.01;100289.78;6212567;23;20024;-62
2021/08/24 07:22:32;;;;;;;0.20;0.20;;;;;;;31.39;24.65;100281.06;6212096;23;20540;-64
2021/08/24 07:25:00;;;;;;;0.13;0.13;;;;;;;31.68;24.43;100275.25;6212424;23;20020;-64
2021/08/24 07:27:27;;;;;;;0.10;0.10;;;;;;;31.80;24.19;100278.16;6210685;23;20016;-63
2021/08/24 07:29:53;;;;;;;0.00;0.00;;;;;;;31.20;24.96;100285.44;6212715;23;20017;-63
2021/08/24 07:32:19;;;;;;;0.22;0.22;;;;;;;30.68;25.42;100288.84;6212342;23;20070;-63
2021/08/24 07:34:45;;;;;;;0.10;0.10;;;;;;;30.72;25.63;100295.50;6210639;23;20458;-62
2021/08/24 07:37:11;;;;;;;0.10;0.10;;;;;;;31.04;25.10;100280.44;6212340;23;20094;-62
2021/08/24 07:39:38;;;;;;;0.10;0.10;;;;;;;30.80;25.25;100291.78;6211901;23;20047;-63
2021/08/24 07:42:04;;;;;;;0.10;0.10;;;;;;;30.44;25.67;100292.09;6211938;23;20043;-62
2021/08/24 07:44:33;;;;;;;0.10;0.10;;;;;;;30.23;25.87;100284.94;6211749;23;20017;-62
2021/08/24 07:47:00;;;;;;;0.10;0.10;;;;;;;30.36;25.62;100278.78;6212115;23;20043;-62
2021/08/24 07:49:26;;;;;;;0.05;0.05;;;;;;;30.07;25.95;100284.44;6209981;23;20012;-62
2021/08/24 07:51:54;;;;;;;0.17;0.17;;;;;;;29.80;26.42;100283.44;6212221;23;20020;-62
2021/08/24 07:54:21;;;;;;;0.03;0.03;;;;;;;29.63;26.70;100285.59;6212213;23;20040;-62
2021/08/24 07:56:47;;;;;;;0.10;0.10;;;;;;;29.79;26.37;100260.22;6212263;23;20036;-63
2021/08/24 07:59:14;;;;;;;0.10;0.10;;;;;;;29.96;26.19;100283.97;6212164;23;20021;-62
2021/08/24 08:01:39;;;;;;;0.38;0.38;;;;;;;29.70;26.44;100285.63;6211722;23;20084;-63
2021/08/24 08:04:05;;;;;;;0.10;0.10;;;;;;;29.82;26.22;100282.19;6212207;23;20021;-62
2021/08/24 08:06:32;;;;;;;0.20;0.20;;;;;;;30.02;26.13;100281.50;6211870;23;20042;-62
2021/08/24 08:08:58;;;;;;;0.00;0.00;;;;;;;30.08;26.09;100280.69;6212072;23;20472;-63
2021/08/24 08:11:25;;;;;;;0.10;0.10;;;;;;;30.06;25.92;100277.38;6211610;23;20051;-63
2021/08/24 08:13:51;;;;;;;0.00;0.00;;;;;;;30.00;25.72;100270.09;6210010;23;20162;-62
2021/08/24 08:16:18;;;;;;;0.00;0.00;;;;;;;29.66;26.14;100277.13;6212074;23;20017;-63
2021/08/24 08:18:44;;;;;;;0.00;0.00;;;;;;;29.44;26.07;100273.66;6211488;23;20017;-63
2021/08/24 08:21:10;;;;;;;0.10;0.10;;;;;;;29.48;25.77;100266.03;6210468;23;20071;-61
2021/08/24 08:23:36;;;;;;;0.00;0.00;;;;;;;29.69;25.54;100274.03;6209659;23;20017;-62
2021/08/24 08:26:02;;;;;;;0.00;0.00;;;;;;;29.66;25.41;100271.75;6211960;23;20024;-62
2021/08/24 08:28:29;;;;;;;0.10;0.10;;;;;;;29.37;25.88;100255.78;6211691;23;20012;-63
2021/08/24 08:30:55;;;;;;;0.00;0.00;;;;;;;29.28;26.20;100268.56;6211902;23;20078;-63
2021/08/24 08:33:22;;;;;;;0.10;0.10;;;;;;;29.24;26.37;100280.72;6211863;23;20078;-62
2021/08/24 08:35:48;;;;;;;0.40;0.40;;;;;;;29.20;26.30;100270.53;6211197;23;20017;-61
2021/08/24 08:38:14;;;;;;;0.20;0.20;;;;;;;29.21;26.26;100273.03;6211447;23;20024;-62
2021/08/24 08:40:46;;;;;;;0.10;0.10;;;;;;;29.25;26.38;100268.97;6211102;23;20020;-61
2021/08/24 08:43:43;;;;;;;0.10;0.10;;;;;;;29.26;26.38;100269.78;6210017;23;20048;-61
2021/08/24 08:46:24;;;;;;;0.10;0.10;;;;;;;29.07;26.86;100267.72;6210309;23;20020;-62
2021/08/24 08:49:06;;;;;;;0.15;0.15;;;;;;;28.84;26.78;100247.25;6211729;23;20039;-62
2021/08/24 08:51:46;;;;;;;0.10;0.10;;;;;;;28.90;26.74;100264.44;6209595;23;20020;-62
2021/08/24 08:54:40;;;;;;;0.05;0.05;;;;;;;28.85;26.84;100265.06;6186368;23;20055;-63
2021/08/24 08:57:18;;;;;;;0.00;0.00;;;;;;;28.81;26.93;100261.06;6212151;23;20029;-62
2021/08/24 08:59:50;;;;;;;0.00;0.00;;;;;;;28.82;27.07;100254.69;6210748;23;20484;-63
2021/08/24 09:02:30;;;;;;;0.10;0.10;;;;;;;28.78;26.83;100245.31;6210946;23;20032;-63
2021/08/24 09:05:01;;;;;;;0.10;0.10;;;;;;;28.80;26.72;100248.63;6210555;23;20071;-62
2021/08/24 09:07:38;;;;;;;0.20;0.20;;;;;;;28.85;26.67;100253.44;6185193;23;20017;-62
2021/08/24 09:10:06;;;;;;;0.00;0.00;;;;;;;28.77;26.38;100245.50;6212171;23;20048;-64
2021/08/24 09:12:33;;;;;;;0.10;0.10;;;;;;;28.73;26.59;100250.44;6211554;23;20020;-65
2021/08/24 23:51:48;;;;;;;0.22;0.22;;;;;;;21.83;40.76;100216.56;6117148;22;1802260;-65
2021/08/24 23:54:14;;;;;;;0.10;0.10;;;;;;;21.87;40.79;100218.91;6245895;22;20016;-65
2021/08/24 23:56:40;;;;;;;0.10;0.10;;;;;;;21.91;40.89;100225.66;6246139;22;20016;-65
2021/08/24 23:59:07;;;;;;;0.10;0.10;;;;;;;21.87;40.89;100232.22;6272700;22;20020;-67
